Thunder radar more information blitzortung!


Rain radar more information rain snow radar


Visit our other weather sites:

Template documentation
and downloads

And another site



No particular awareness of the weather is required.    There are no Weather-warnings

Nearby METAR Reports


Warning: A non-numeric value encountered in /var/www/vhosts/meteosesrovires.cat/httpdocs/weather28/metar/wsMetarTxt.php on line 609

Warning: A non-numeric value encountered in /var/www/vhosts/meteosesrovires.cat/httpdocs/weather28/metar/wsMetarTxt.php on line 609

Warning: A non-numeric value encountered in /var/www/vhosts/meteosesrovires.cat/httpdocs/weather28/metar/wsMetarTxt.php on line 609
   
LEBL - Barcelona Airpor, Spain
Distance from station: SSE 30 km
Updated: 25-05-2018 20:30
Clear  
Clear  
   Wind: ENE 27.8 km/h
Wind: ENE 27.8 km/h
Temperature: 21°C
Dew Point: 15°C
Humidity: 69%
Barometer: 1014 hPa
Visibility: More than 10 km
Cloud details: Clear ft
LEBL 251830Z 07015KT CAVOK 21/15 Q1014 NOSIG
LELL - Sabadell, Spain
Distance from station: WNW 14 km
Updated: 25-05-2018 20:30
Clear  
Clear  
   Wind: East 16.7 km/h
Wind: East 16.7 km/h
Temperature: 22°C
Dew Point: 10°C
Humidity: 47%
Barometer: 1014 hPa
Visibility: More than 10 km
Cloud details: Clear ft
LELL 251830Z 08009KT 020V120 CAVOK 22/10 Q1014
LEGE - Girona/Costa Bra, Spain
Distance from station: NE 65 km
Updated: 25-05-2018 20:30
Few Clouds  
Few Clouds  
   Wind: ESE 7.4 km/h
Wind: ESE 7.4 km/h
Temperature: 20°C
Dew Point: 10°C
Humidity: 53%
Barometer: 1015 hPa
Clouds: Few Clouds
Visibility: More than 10 km
Cloud details: Few Clouds 4000 ft
LEGE 251830Z 12004KT 9999 FEW040 20/10 Q1015
LERS - Reus (civ/Mil), Spain
Distance from station: WSW 96 km
Updated: 25-05-2018 20:30
Clear  
Clear  
   Wind: East 20.4 km/h
Wind: East 20.4 km/h
Temperature: 21°C
Dew Point: 15°C
Humidity: 69%
Barometer: 1013 hPa
Visibility: More than 10 km
Cloud details: Clear ft
LERS 251830Z 09011KT 050V140 CAVOK 21/15 Q1013
LESU - Pirineus/La Seu, Spain
Distance from station: NW 121 km
Updated: 25-05-2018 19:00
NOT Current
Partly Cloudy  
Partly Cloudy  
   Wind: South 22.2 km/h
Wind: South 22.2 km/h
Temperature: 23°C
Dew Point: 6°C
Humidity: 33%
Barometer: 1014 hPa
Clouds: Partly Cloudy
Visibility: More than 10 km
Cloud details: Few Clouds 5000 ft,
Partly Cloudy 9500 ft
LESU 251700Z 17012KT 9999 FEW050 SCT095 23/06 Q1014
LEDA - Lleida/Alguaire, Spain
Distance from station: WNW 146 km
Updated: 25-05-2018 15:30
NOT Current
Clear  
Clear  
   Wind: ENE 40.7 km/h
Wind: ENE 40.7 km/h
Temperature: 26°C
Dew Point: 9°C
Humidity: 34%
Barometer: 1012 hPa
Visibility: More than 10 km
Cloud details: Clear ft
LEDA 251330Z 07022KT 040V100 CAVOK 26/09 Q1012
LFMP - Perpignan/Rivesa, France
Distance from station: NNE 150 km
Updated: 25-05-2018 20:30
Clear  
Clear  
   Wind: ESE 13 km/h
Wind: ESE 13 km/h
Temperature: 20°C
Dew Point: 14°C
Humidity: 69%
Barometer: 1014 hPa
Visibility: More than 10 km
Cloud details: Clear ft
LFMP 251830Z AUTO 12007KT CAVOK 20/14 Q1014 NOSIG
LEPA - Palma De Mallorca, Spain
Distance from station: S 216 km
Updated: 25-05-2018 20:30
Few Clouds  
Few Clouds  
   Wind: WSW 14.8 km/h
Wind: WSW 14.8 km/h
Temperature: 21°C
Dew Point: 19°C
Humidity: 88%
Barometer: 1012 hPa
Clouds: Few Clouds
Visibility: 9 km
Cloud details: Few Clouds 1600 ft
LEPA 251830Z 24008KT 9000 FEW016 21/19 Q1012 NOSIG
 

Script developed by  Saratoga-weather.org Adapted for the template by  Weerstation Leuven

You find our weather info also at:

Weather Underground

AWEKAS